Time,TemperatureF,DewpointF,PressureIn,WindDirection,WindDirectionDegrees,WindSpeedMPH,WindSpeedGustMPH,Humidity,HourlyPrecipIn,Conditions,Clouds,dailyrainin,SoftwareType,DateUTC
2013-03-27 00:50:00,20.0,19.0,-100.00,ENE,60,3.0,-999.0,96,-99.99,,,-99.99,,2013-03-27 06:50:00,
2013-03-27 01:32:00,20.0,19.0,-100.00,ENE,60,3.0,-999.0,96,-99.99,,,-99.99,,2013-03-27 07:32:00,
2013-03-27 01:42:00,20.0,19.0,-100.00,ENE,60,3.0,-999.0,96,-99.99,,,-99.99,,2013-03-27 07:42:00,
2013-03-27 01:50:00,19.0,18.0,-100.00,North,0,0.0,-999.0,95,-99.99,,,-99.99,,2013-03-27 07:50:00,
2013-03-27 02:32:00,19.0,18.0,-100.00,North,0,0.0,-999.0,95,-99.99,,,-99.99,,2013-03-27 08:32:00,
2013-03-27 02:43:00,19.0,18.0,-100.00,North,0,0.0,-999.0,95,-99.99,,,-99.99,,2013-03-27 08:43:00,
2013-03-27 02:50:00,18.0,18.0,-100.00,NNE,20,3.0,-999.0,100,-99.99,,,-99.99,,2013-03-27 08:50:00,
2013-03-27 03:32:00,18.0,18.0,-100.00,NNE,20,3.0,-999.0,100,-99.99,,,-99.99,,2013-03-27 09:32:00,
2013-03-27 03:42:00,18.0,18.0,-100.00,NNE,20,3.0,-999.0,100,-99.99,,,-99.99,,2013-03-27 09:42:00,
2013-03-27 03:50:00,16.0,15.0,-100.00,North,0,0.0,-999.0,96,-99.99,,,-99.99,,2013-03-27 09:50:00,
2013-03-27 04:32:00,16.0,15.0,-100.00,North,0,0.0,-999.0,96,-99.99,,,-99.99,,2013-03-27 10:32:00,
2013-03-27 04:42:00,16.0,15.0,-100.00,North,0,0.0,-999.0,96,-99.99,,,-99.99,,2013-03-27 10:42:00,
2013-03-27 04:50:00,17.0,17.0,-100.00,SE,130,5.0,-999.0,100,-99.99,,,-99.99,,2013-03-27 10:50:00,
2013-03-27 05:32:00,17.0,17.0,-100.00,SE,130,5.0,-999.0,100,-99.99,,,-99.99,,2013-03-27 11:32:00,
2013-03-27 05:42:00,17.0,17.0,-100.00,SE,130,5.0,-999.0,100,-99.99,,,-99.99,,2013-03-27 11:42:00,
2013-03-27 05:50:00,14.0,13.0,-100.00,North,0,0.0,-999.0,95,-99.99,,,-99.99,,2013-03-27 11:50:00,
2013-03-27 06:32:00,14.0,13.0,-100.00,North,0,0.0,-999.0,95,-99.99,,,-99.99,,2013-03-27 12:32:00,
2013-03-27 06:43:00,14.0,13.0,-100.00,North,0,0.0,-999.0,95,-99.99,,,-99.99,,2013-03-27 12:43:00,
2013-03-27 07:50:00,14.0,12.0,-100.00,North,0,0.0,-999.0,91,-99.99,,,-99.99,,2013-03-27 13:50:00,
2013-03-27 08:32:00,14.0,12.0,-100.00,North,0,0.0,-999.0,91,-99.99,,,-99.99,,2013-03-27 14:32:00,
2013-03-27 08:42:00,14.0,12.0,-100.00,North,0,0.0,-999.0,91,-99.99,,,-99.99,,2013-03-27 14:42:00,
2013-03-27 08:50:00,19.0,17.0,-100.00,NNW,330,3.0,-999.0,91,-99.99,,,-99.99,,2013-03-27 14:50:00,
2013-03-27 09:33:00,19.0,17.0,-100.00,NNW,330,3.0,-999.0,91,-99.99,,,-99.99,,2013-03-27 15:33:00,
2013-03-27 09:42:00,19.0,17.0,-100.00,NNW,330,3.0,-999.0,91,-99.99,,,-99.99,,2013-03-27 15:42:00,
2013-03-27 09:50:00,23.0,21.0,-100.00,NW,320,2.0,-999.0,91,-99.99,,,-99.99,,2013-03-27 15:50:00,
2013-03-27 10:32:00,23.0,21.0,-100.00,NW,320,2.0,-999.0,91,-99.99,,,-99.99,,2013-03-27 16:32:00,
2013-03-27 10:42:00,23.0,21.0,-100.00,NW,320,2.0,-999.0,91,-99.99,,,-99.99,,2013-03-27 16:42:00,
2013-03-27 10:50:00,30.0,25.0,-100.00,WNW,290,3.0,-999.0,81,-99.99,,,-99.99,,2013-03-27 16:50:00,
2013-03-27 11:32:00,30.0,25.0,-100.00,WNW,290,3.0,-999.0,81,-99.99,,,-99.99,,2013-03-27 17:32:00,
2013-03-27 11:44:00,30.0,25.0,-100.00,WNW,290,3.0,-999.0,81,-99.99,,,-99.99,,2013-03-27 17:44:00,
2013-03-27 11:50:00,38.0,26.0,-100.00,ENE,60,8.0,-999.0,61,-99.99,,,-99.99,,2013-03-27 17:50:00,
2013-03-27 12:32:00,38.0,26.0,-100.00,ENE,60,8.0,-999.0,61,-99.99,,,-99.99,,2013-03-27 18:32:00,
2013-03-27 12:42:00,38.0,26.0,-100.00,ENE,60,8.0,-999.0,61,-99.99,,,-99.99,,2013-03-27 18:42:00,
2013-03-27 12:50:00,38.0,26.0,-100.00,ENE,70,8.0,-999.0,61,-99.99,,,-99.99,,2013-03-27 18:50:00,
2013-03-27 13:32:00,38.0,26.0,-100.00,ENE,70,8.0,-999.0,61,-99.99,,,-99.99,,2013-03-27 19:32:00,
2013-03-27 13:42:00,38.0,26.0,-100.00,ENE,70,8.0,-999.0,61,-99.99,,,-99.99,,2013-03-27 19:42:00,
2013-03-27 13:50:00,39.0,29.0,-100.00,ENE,70,8.0,-999.0,66,-99.99,,,-99.99,,2013-03-27 19:50:00,
2013-03-27 14:32:00,39.0,29.0,-100.00,ENE,70,8.0,-999.0,66,-99.99,,,-99.99,,2013-03-27 20:32:00,
2013-03-27 14:42:00,39.0,29.0,-100.00,ENE,70,8.0,-999.0,66,-99.99,,,-99.99,,2013-03-27 20:42:00,
2013-03-27 14:50:00,38.0,29.0,-100.00,ENE,70,10.0,-999.0,69,-99.99,,,-99.99,,2013-03-27 20:50:00,
2013-03-27 15:32:00,38.0,29.0,-100.00,ENE,70,10.0,-999.0,69,-99.99,,,-99.99,,2013-03-27 21:32:00,
2013-03-27 15:43:00,38.0,29.0,-100.00,ENE,70,10.0,-999.0,69,-99.99,,,-99.99,,2013-03-27 21:43:00,
2013-03-27 15:50:00,40.0,30.0,-100.00,ENE,70,10.0,-999.0,67,-99.99,,,-99.99,,2013-03-27 21:50:00,
2013-03-27 16:33:00,40.0,30.0,-100.00,ENE,70,10.0,-999.0,67,-99.99,,,-99.99,,2013-03-27 22:33:00,
2013-03-27 16:42:00,40.0,30.0,-100.00,ENE,70,10.0,-999.0,67,-99.99,,,-99.99,,2013-03-27 22:42:00,
2013-03-27 16:50:00,40.0,29.0,-100.00,ENE,60,10.0,-999.0,64,-99.99,,,-99.99,,2013-03-27 22:50:00,
2013-03-27 17:32:00,40.0,29.0,-100.00,ENE,60,10.0,-999.0,64,-99.99,,,-99.99,,2013-03-27 23:32:00,
2013-03-27 17:42:00,40.0,29.0,-100.00,ENE,60,10.0,-999.0,64,-99.99,,,-99.99,,2013-03-27 23:42:00,
2013-03-27 17:50:00,38.0,26.0,-100.00,ENE,70,12.0,-999.0,61,-99.99,,,-99.99,,2013-03-27 23:50:00,
2013-03-27 18:32:00,38.0,26.0,-100.00,ENE,70,12.0,-999.0,61,-99.99,,,-99.99,,2013-03-28 00:32:00,
2013-03-27 18:43:00,38.0,26.0,-100.00,ENE,70,12.0,-999.0,61,-99.99,,,-99.99,,2013-03-28 00:43:00,
2013-03-27 18:50:00,37.0,27.0,-100.00,East,80,12.0,-999.0,66,-99.99,,,-99.99,,2013-03-28 00:50:00,
2013-03-27 19:32:00,37.0,27.0,-100.00,East,80,12.0,-999.0,66,-99.99,,,-99.99,,2013-03-28 01:32:00,
2013-03-27 19:42:00,37.0,27.0,-100.00,East,80,12.0,-999.0,66,-99.99,,,-99.99,,2013-03-28 01:42:00,
2013-03-27 19:50:00,33.0,27.0,-100.00,East,80,8.0,-999.0,77,-99.99,,,-99.99,,2013-03-28 01:50:00,
2013-03-27 20:32:00,33.0,27.0,-100.00,East,80,8.0,-999.0,77,-99.99,,,-99.99,,2013-03-28 02:32:00,
2013-03-27 20:42:00,33.0,27.0,-100.00,East,80,8.0,-999.0,77,-99.99,,,-99.99,,2013-03-28 02:42:00,
2013-03-27 20:50:00,32.0,25.0,-100.00,NE,50,13.0,-999.0,74,-99.99,,,-99.99,,2013-03-28 02:50:00,
2013-03-27 21:33:00,32.0,25.0,-100.00,NE,50,13.0,-999.0,74,-99.99,,,-99.99,,2013-03-28 03:33:00,
2013-03-27 21:43:00,32.0,25.0,-100.00,NE,50,13.0,-999.0,74,-99.99,,,-99.99,,2013-03-28 03:43:00,
2013-03-27 21:50:00,30.0,26.0,-100.00,ENE,70,9.0,-999.0,84,-99.99,,,-99.99,,2013-03-28 03:50:00,
2013-03-27 22:32:00,30.0,26.0,-100.00,ENE,70,9.0,-999.0,84,-99.99,,,-99.99,,2013-03-28 04:32:00,
2013-03-27 22:42:00,30.0,26.0,-100.00,ENE,70,9.0,-999.0,84,-99.99,,,-99.99,,2013-03-28 04:42:00,
2013-03-27 22:50:00,28.0,24.0,-100.00,ENE,70,13.0,-999.0,84,-99.99,,,-99.99,,2013-03-28 04:50:00,
2013-03-27 23:32:00,28.0,24.0,-100.00,ENE,70,13.0,-999.0,84,-99.99,,,-99.99,,2013-03-28 05:32:00,
2013-03-27 23:42:00,28.0,24.0,-100.00,ENE,70,13.0,-999.0,84,-99.99,,,-99.99,,2013-03-28 05:42:00,